South Danville, New Hampshire
Current Conditions -  °F | °C
As of 9:54 PM on Wednesday 22 Oct 2014 (Local Time) from KLWM Reporting Station
Light Rain Light Rain  
Wind Chill: 41°   Ceiling: 1000
Heat Index: 49°   Visibility: 6mi
Dew Point: 47°   Wind: 24mph
Humidity: 93%   Direction: 50°NE
Pressure: 29.9"   Gusts: 40mph
Location:  42.9217°N, 71.1138°W
Report Text: KLWM 230154Z 05021G35KT 6SM -RA BR OVC010 09/08 A2990 RMK AO2 PK WND 04038/0143 CIG 007V014 SLP126 P0001 T00940083
Loading
Personal Weather Stations






























Interactive Weather Map
Tropical Storm Tracking
New forecast layout! Learn more

10-Day Weather Forecast

Advertisements
Track Severe Weather on mobile